Time;durP1;ratioP1;P1;durP2;ratioP2;P2;SDS_P1;SDS_P2;PMS_P1;PMS_P2;Temp;Humidity;BMP_temperature;BMP_pressure;BME280_temperature;BME280_humidity;BME280_pressure;Samples;Min_cycle;Max_cycle;Signal;HPM_P1;HPM_P2
2021/08/29 00:00:08;;;;;;;7.30;1.52;;;;;;;14.61;52.98;101922.50;5013100;28;20537;-71
2021/08/29 00:02:34;;;;;;;13.45;1.20;;;;;;;14.77;52.07;101923.59;5016003;28;20038;-70
2021/08/29 00:04:59;;;;;;;8.13;2.08;;;;;;;14.82;51.97;101928.66;5004080;28;20040;-68
2021/08/29 00:07:25;;;;;;;6.28;1.40;;;;;;;14.66;52.41;101921.41;5015364;28;20455;-68
2021/08/29 00:09:50;;;;;;;8.00;2.30;;;;;;;14.62;52.36;101914.53;5005243;28;20029;-69
2021/08/29 00:12:16;;;;;;;7.45;1.38;;;;;;;14.53;52.73;101910.50;5015053;28;20061;-69
2021/08/29 00:14:42;;;;;;;5.03;1.38;;;;;;;14.61;52.33;101917.22;5013326;28;20067;-68
2021/08/29 00:17:07;;;;;;;11.68;1.50;;;;;;;14.56;52.13;101909.53;5030205;28;20059;-69
2021/08/29 00:19:34;;;;;;;4.47;1.40;;;;;;;14.76;51.26;101911.34;5011900;28;20084;-68
2021/08/29 00:22:00;;;;;;;11.93;1.38;;;;;;;14.76;51.08;101906.94;5028343;28;20041;-69
2021/08/29 00:24:26;;;;;;;7.45;2.13;;;;;;;14.61;51.72;101902.28;5016813;28;20042;-69
2021/08/29 00:26:52;;;;;;;4.85;1.35;;;;;;;14.81;51.25;101904.09;5017627;28;20541;-69
2021/08/29 00:29:18;;;;;;;8.88;2.03;;;;;;;14.67;51.66;101894.16;5015933;28;20049;-69
2021/08/29 00:31:44;;;;;;;10.60;1.77;;;;;;;14.61;51.56;101896.19;5022173;28;20022;-70
2021/08/29 00:34:10;;;;;;;14.50;2.17;;;;;;;14.81;51.27;101898.00;5002797;28;20065;-69
2021/08/29 00:36:40;;;;;;;9.10;1.75;;;;;;;14.53;52.16;101885.97;5014577;28;20036;-69
2021/08/29 00:39:06;;;;;;;10.80;1.88;;;;;;;14.60;51.89;101890.06;5015863;28;20033;-68
2021/08/29 00:41:32;;;;;;;3.05;1.30;;;;;;;14.69;52.19;101888.84;5017455;28;20042;-68
2021/08/29 00:43:58;;;;;;;5.68;1.35;;;;;;;14.52;52.46;101886.88;5014811;28;20517;-68
2021/08/29 00:46:24;;;;;;;4.80;1.65;;;;;;;14.52;52.69;101881.63;5002509;28;20061;-68
2021/08/29 00:48:51;;;;;;;2.85;1.10;;;;;;;14.34;53.31;101884.06;5016783;28;20026;-68
2021/08/29 00:51:17;;;;;;;9.50;2.03;;;;;;;14.68;52.30;101880.09;5027988;28;20045;-68
2021/08/29 00:53:46;;;;;;;5.85;2.10;;;;;;;14.70;51.98;101880.00;5031814;28;20044;-68
2021/08/29 00:56:11;;;;;;;9.52;1.90;;;;;;;14.33;53.42;101881.50;5031768;28;20029;-68
2021/08/29 00:58:38;;;;;;;6.47;1.75;;;;;;;14.28;52.97;101879.03;5014102;28;20080;-69
2021/08/29 01:01:03;;;;;;;8.75;1.48;;;;;;;14.58;52.26;101885.78;5030983;28;20025;-70
2021/08/29 01:03:35;;;;;;;7.28;1.58;;;;;;;14.22;53.06;101874.03;5031583;28;20059;-68
2021/08/29 01:06:15;;;;;;;6.10;1.17;;;;;;;14.49;51.92;101873.88;5015905;28;20057;-68
2021/08/29 01:08:57;;;;;;;11.18;1.67;;;;;;;14.61;51.54;101870.72;5013484;28;20037;-68
2021/08/29 01:11:27;;;;;;;5.68;1.05;;;;;;;14.51;51.30;101870.25;5015693;28;20037;-68
2021/08/29 01:14:04;;;;;;;6.38;1.33;;;;;;;14.67;50.63;101869.63;5004624;28;20045;-68
2021/08/29 01:16:34;;;;;;;12.05;1.55;;;;;;;14.73;50.63;101862.31;5012697;28;20037;-68
2021/08/29 01:19:08;;;;;;;6.05;1.88;;;;;;;14.52;51.20;101871.09;5018820;28;20045;-68
2021/08/29 01:21:36;;;;;;;6.22;1.80;;;;;;;14.37;51.28;101864.69;5002473;28;20108;-69
2021/08/29 01:24:09;;;;;;;4.97;1.25;;;;;;;14.23;51.76;101862.59;5021465;28;20096;-69
2021/08/29 01:26:45;;;;;;;3.72;0.90;;;;;;;14.37;50.38;101862.03;5021466;28;20044;-69
2021/08/29 01:29:12;;;;;;;5.55;1.67;;;;;;;14.22;50.40;101868.78;5019010;28;20165;-68
2021/08/29 01:31:40;;;;;;;7.15;2.22;;;;;;;14.03;52.08;101873.03;5032541;28;20250;-68
2021/08/29 01:34:13;;;;;;;9.50;1.98;;;;;;;14.04;53.03;101864.25;5023155;28;20411;-69
2021/08/29 01:36:41;;;;;;;5.60;1.60;;;;;;;13.89;54.10;101877.03;5003400;28;20037;-69
2021/08/29 01:39:13;;;;;;;7.10;1.63;;;;;;;13.89;54.40;101874.41;5022158;28;20301;-68
2021/08/29 01:41:43;;;;;;;5.32;1.38;;;;;;;13.65;55.01;101877.97;5003955;28;20076;-68
2021/08/29 01:44:10;;;;;;;4.32;1.10;;;;;;;13.88;54.60;101869.22;5033571;28;20029;-68
2021/08/29 01:46:36;;;;;;;4.03;1.40;;;;;;;13.73;54.58;101868.88;5033033;28;20044;-69
2021/08/29 01:49:08;;;;;;;9.68;1.70;;;;;;;13.73;54.60;101865.41;5006370;28;20034;-69
2021/08/29 01:51:34;;;;;;;6.70;1.50;;;;;;;13.74;54.61;101872.34;5014009;28;20029;-69
2021/08/29 01:54:13;;;;;;;3.47;1.75;;;;;;;13.38;55.23;101870.13;5022365;28;20032;-69
2021/08/29 01:57:03;;;;;;;3.58;1.05;;;;;;;13.58;54.74;101868.59;5018853;28;20130;-68
2021/08/29 01:59:31;;;;;;;3.58;0.90;;;;;;;13.24;55.44;101857.50;5022333;28;20112;-69
2021/08/29 02:01:57;;;;;;;4.68;1.20;;;;;;;13.35;54.50;101857.13;5008273;28;20417;-68
2021/08/29 02:04:25;;;;;;;2.38;1.13;;;;;;;12.79;56.34;101862.59;5032214;28;20523;-70
2021/08/29 02:06:58;;;;;;;4.25;1.42;;;;;;;13.38;54.79;101861.41;5034359;28;20501;-68
2021/08/29 02:09:28;;;;;;;2.97;1.00;;;;;;;13.12;55.80;101863.22;5021793;28;20041;-67
2021/08/29 02:11:59;;;;;;;5.60;0.90;;;;;;;12.94;56.60;101853.34;5001296;28;20121;-67
2021/08/29 02:14:38;;;;;;;5.60;1.40;;;;;;;13.30;55.96;101857.31;5031965;28;20245;-67
2021/08/29 02:17:04;;;;;;;5.82;1.52;;;;;;;13.23;56.56;101865.47;5017090;28;20060;-68
2021/08/29 02:19:35;;;;;;;5.53;1.67;;;;;;;13.10;57.35;101859.78;5031981;28;20025;-68
2021/08/29 02:22:06;;;;;;;6.97;2.53;;;;;;;13.16;57.73;101863.94;5017604;28;20040;-68
2021/08/29 02:24:32;;;;;;;4.28;1.58;;;;;;;12.90;58.48;101855.22;5016167;28;20026;-68
2021/08/29 02:27:06;;;;;;;8.63;1.98;;;;;;;13.33;57.64;101856.34;5021718;28;20080;-68
2021/08/29 02:29:32;;;;;;;5.05;1.80;;;;;;;13.18;58.31;101856.88;5032671;28;20033;-67
2021/08/29 02:31:59;;;;;;;10.10;2.08;;;;;;;13.23;57.98;101852.34;5020297;28;20666;-68
2021/08/29 02:34:24;;;;;;;3.95;1.73;;;;;;;13.40;57.45;101851.72;5029849;28;20057;-67
2021/08/29 02:36:57;;;;;;;11.15;1.65;;;;;;;13.49;57.31;101840.88;5015844;28;20376;-67
2021/08/29 02:39:38;;;;;;;4.78;1.38;;;;;;;13.01;58.67;101844.38;5017972;28;20120;-67
2021/08/29 02:42:07;;;;;;;5.22;1.75;;;;;;;13.19;58.19;101837.59;5033010;28;20026;-68
2021/08/29 02:44:41;;;;;;;6.93;1.30;;;;;;;13.22;58.43;101843.59;5033559;28;20064;-69
2021/08/29 02:47:07;;;;;;;5.55;1.40;;;;;;;13.24;58.22;101839.13;5031164;28;20510;-68
2021/08/29 02:49:34;;;;;;;7.25;1.92;;;;;;;13.60;57.50;101832.63;5033909;28;20049;-67
2021/08/29 02:52:02;;;;;;;3.58;1.63;;;;;;;13.30;58.35;101835.44;5017116;28;20030;-67
2021/08/29 02:54:29;;;;;;;5.78;1.50;;;;;;;13.27;58.56;101840.78;5014793;28;20403;-67
2021/08/29 02:56:57;;;;;;;6.65;1.63;;;;;;;13.34;58.16;101837.06;5018095;28;20038;-67
2021/08/29 02:59:23;;;;;;;8.73;1.67;;;;;;;13.35;57.84;101837.91;5033892;28;20091;-67
2021/08/29 03:01:49;;;;;;;5.85;1.75;;;;;;;13.06;58.81;101837.19;5015575;28;20041;-67
2021/08/29 03:04:22;;;;;;;6.03;1.30;;;;;;;12.81;59.92;101835.41;5031166;28;20049;-67
2021/08/29 03:06:49;;;;;;;7.03;1.33;;;;;;;12.87;59.50;101836.94;5013950;28;20276;-67
2021/08/29 03:09:14;;;;;;;3.58;1.60;;;;;;;12.54;60.73;101834.53;5031684;28;20026;-67
2021/08/29 03:11:45;;;;;;;5.32;1.20;;;;;;;12.61;60.25;101829.94;5017155;28;20022;-67
2021/08/29 03:14:22;;;;;;;5.85;1.42;;;;;;;12.77;59.79;101832.94;5019128;28;20042;-68
2021/08/29 03:16:50;;;;;;;9.07;1.27;;;;;;;12.76;60.20;101829.47;5032854;28;20033;-68
2021/08/29 03:19:39;;;;;;;8.15;1.20;;;;;;;12.87;59.71;101826.44;5021968;28;20554;-67
2021/08/29 03:22:22;;;;;;;6.35;1.85;;;;;;;12.78;59.86;101822.41;5014285;28;20073;-68
2021/08/29 03:24:50;;;;;;;5.25;1.33;;;;;;;12.91;59.09;101825.44;5031396;28;20353;-68
2021/08/29 03:27:16;;;;;;;4.70;1.42;;;;;;;12.65;60.08;101824.53;4999637;28;20068;-67
2021/08/29 03:29:42;;;;;;;6.57;1.13;;;;;;;12.75;59.94;101825.13;5012839;28;20063;-68
2021/08/29 03:32:09;;;;;;;5.63;0.85;;;;;;;12.76;59.79;101828.59;5029919;28;20042;-67
2021/08/29 03:34:36;;;;;;;3.03;1.00;;;;;;;12.91;59.50;101825.44;5003847;28;20026;-68
2021/08/29 03:37:04;;;;;;;3.15;1.35;;;;;;;12.82;59.92;101823.13;5007773;28;20025;-67
2021/08/29 03:39:35;;;;;;;2.17;0.70;;;;;;;13.07;59.39;101825.75;5020460;28;20022;-68
2021/08/29 03:42:02;;;;;;;4.15;0.90;;;;;;;12.79;60.27;101820.63;5015819;28;20033;-68
2021/08/29 03:44:29;;;;;;;3.10;0.90;;;;;;;13.03;59.22;101814.53;5030306;28;20091;-68
2021/08/29 03:46:55;;;;;;;11.02;1.48;;;;;;;13.18;58.70;101815.72;5003798;28;20513;-68
2021/08/29 03:49:36;;;;;;;5.80;1.77;;;;;;;12.97;59.88;101817.38;5003227;28;20036;-67
2021/08/29 03:52:04;;;;;;;7.05;1.92;;;;;;;13.40;58.65;101815.81;5009076;28;20095;-68
2021/08/29 03:54:50;;;;;;;7.03;1.20;;;;;;;13.39;58.41;101811.47;5015471;28;20080;-68
2021/08/29 03:57:16;;;;;;;3.08;0.90;;;;;;;13.60;58.14;101807.22;5018415;28;20067;-68
2021/08/29 03:59:42;;;;;;;5.85;1.25;;;;;;;13.52;58.18;101804.84;5002781;28;20022;-67
2021/08/29 04:02:09;;;;;;;3.63;1.13;;;;;;;13.70;57.74;101803.34;5023906;28;20401;-67
2021/08/29 04:04:35;;;;;;;3.15;1.08;;;;;;;13.56;58.25;101800.31;5029717;28;20261;-67
2021/08/29 04:07:04;;;;;;;3.95;0.95;;;;;;;13.85;57.06;101801.88;5029268;28;20057;-68
2021/08/29 04:09:39;;;;;;;3.22;1.27;;;;;;;13.77;57.36;101798.69;5014099;28;20041;-67
2021/08/29 04:12:05;;;;;;;2.10;1.15;;;;;;;13.77;57.41;101796.06;5021832;28;20029;-68
2021/08/29 04:14:51;;;;;;;6.80;0.90;;;;;;;13.62;57.89;101794.03;5013323;28;20045;-67
2021/08/29 04:17:17;;;;;;;2.15;1.05;;;;;;;13.69;57.33;101795.50;5017008;28;20352;-67
2021/08/29 04:19:54;;;;;;;2.75;1.00;;;;;;;13.85;57.06;101788.75;5018445;28;20022;-68
2021/08/29 04:22:22;;;;;;;3.97;1.42;;;;;;;13.68;57.76;101794.66;5003621;28;20046;-67
2021/08/29 04:24:47;;;;;;;6.55;1.17;;;;;;;13.86;57.31;101793.06;5019379;28;20030;-67
2021/08/29 04:27:14;;;;;;;3.03;1.23;;;;;;;13.92;57.41;101792.84;5014628;28;20692;-68
2021/08/29 04:29:42;;;;;;;4.13;0.95;;;;;;;13.88;57.16;101791.25;5028055;28;20121;-68
2021/08/29 04:32:10;;;;;;;4.07;1.27;;;;;;;13.94;57.14;101791.00;5014292;28;20505;-68
2021/08/29 04:34:36;;;;;;;6.28;1.42;;;;;;;13.70;57.86;101798.06;5016142;28;20025;-67
2021/08/29 04:37:13;;;;;;;4.68;1.42;;;;;;;13.84;57.40;101792.28;5030848;28;20482;-67
2021/08/29 04:39:45;;;;;;;3.97;2.13;;;;;;;13.76;57.90;101786.47;5028932;28;20037;-68
2021/08/29 04:42:10;;;;;;;5.85;1.90;;;;;;;13.71;58.02;101793.66;5031997;28;20037;-67
2021/08/29 04:44:37;;;;;;;5.43;1.73;;;;;;;13.83;57.70;101781.81;5004073;28;20041;-68
2021/08/29 04:47:04;;;;;;;4.70;1.38;;;;;;;13.61;57.81;101787.06;5013464;28;20076;-68
2021/08/29 04:49:34;;;;;;;5.68;1.42;;;;;;;13.55;58.02;101795.16;5016165;28;20029;-67
2021/08/29 04:51:59;;;;;;;2.17;1.15;;;;;;;13.58;57.84;101792.44;5014111;28;20251;-68
2021/08/29 04:54:27;;;;;;;6.90;0.90;;;;;;;13.73;57.01;101786.59;5000692;28;20037;-68
2021/08/29 04:56:52;;;;;;;6.18;0.98;;;;;;;13.91;56.06;101790.25;5005182;23;20053;-75
2021/08/29 04:59:18;;;;;;;2.92;0.73;;;;;;;13.78;56.55;101783.78;5008919;28;20060;-74
2021/08/29 05:01:44;;;;;;;3.22;0.70;;;;;;;13.93;55.92;101784.03;4990959;28;20195;-72
2021/08/29 05:04:09;;;;;;;6.30;0.60;;;;;;;13.92;56.13;101787.59;4996893;28;20065;-72
2021/08/29 05:06:35;;;;;;;2.15;1.00;;;;;;;14.01;55.72;101794.25;4999105;28;20026;-71
2021/08/29 05:09:04;;;;;;;8.23;1.23;;;;;;;14.09;55.25;101796.56;4999291;28;20561;-70
2021/08/29 05:11:30;;;;;;;4.28;0.77;;;;;;;14.01;55.86;101796.00;4993356;28;20415;-71
2021/08/29 05:13:56;;;;;;;2.08;0.60;;;;;;;14.19;55.29;101805.81;4998945;28;20036;-71
2021/08/29 05:16:21;;;;;;;2.72;1.05;;;;;;;13.92;55.88;101792.84;5001720;28;20038;-73
2021/08/29 05:18:47;;;;;;;4.63;0.93;;;;;;;14.23;55.19;101791.63;4991863;28;20554;-72
2021/08/29 05:21:22;;;;;;;1.42;0.60;;;;;;;14.32;55.09;101796.50;4997906;28;20031;-71
2021/08/29 05:24:06;;;;;;;1.75;0.47;;;;;;;14.21;55.42;101803.97;4993527;28;20096;-70
2021/08/29 05:26:45;;;;;;;2.45;0.60;;;;;;;14.35;54.71;101801.63;4989815;28;20041;-70
2021/08/29 05:29:11;;;;;;;6.25;1.33;;;;;;;14.32;54.95;101791.22;4994976;28;20026;-70
2021/08/29 05:31:38;;;;;;;2.38;0.98;;;;;;;14.44;54.82;101795.16;4991186;28;20040;-74
2021/08/29 05:34:04;;;;;;;2.97;0.50;;;;;;;14.59;54.35;101793.66;4985206;28;20034;-73
2021/08/29 05:36:29;;;;;;;2.05;0.38;;;;;;;14.29;54.80;101793.13;5030803;23;20053;-68
2021/08/29 05:38:55;;;;;;;4.13;0.75;;;;;;;14.65;53.91;101788.13;5037230;28;20048;-69
2021/08/29 05:41:31;;;;;;;4.65;0.68;;;;;;;14.53;54.45;101793.91;5030268;28;20180;-70
2021/08/29 05:44:16;;;;;;;5.60;1.98;;;;;;;14.60;54.37;101794.50;5036994;28;20080;-70
2021/08/29 05:46:42;;;;;;;2.15;0.65;;;;;;;14.72;53.64;101793.97;5031797;28;20040;-69
2021/08/29 05:49:08;;;;;;;2.85;0.77;;;;;;;14.76;53.61;101800.81;5047475;28;20037;-69
2021/08/29 05:51:34;;;;;;;3.65;0.70;;;;;;;14.74;53.81;101800.03;5036145;28;20068;-70
2021/08/29 05:53:59;;;;;;;1.50;0.50;;;;;;;14.90;53.49;101802.84;5036069;28;20040;-68
2021/08/29 05:56:25;;;;;;;3.65;0.70;;;;;;;14.58;54.15;101794.56;5037222;28;20043;-70
2021/08/29 05:58:52;;;;;;;1.20;0.40;;;;;;;15.06;52.70;101793.38;5019362;28;20100;-69
2021/08/29 06:01:19;;;;;;;2.47;0.40;;;;;;;14.80;53.64;101801.56;5034111;28;20554;-69
2021/08/29 06:03:46;;;;;;;5.82;0.82;;;;;;;14.76;53.75;101798.19;5023832;28;20552;-69
2021/08/29 06:06:39;;;;;;;3.10;0.38;;;;;;;14.97;53.52;101806.94;5041922;28;20021;-69
2021/08/29 06:09:06;;;;;;;8.32;1.05;;;;;;;14.79;53.61;101800.69;5019118;28;20022;-70
2021/08/29 06:11:33;;;;;;;1.88;0.73;;;;;;;14.84;53.71;101803.13;5021058;28;20048;-70
2021/08/29 06:13:59;;;;;;;1.92;0.70;;;;;;;14.59;54.14;101801.56;5036162;28;20116;-69
2021/08/29 06:16:25;;;;;;;2.50;0.30;;;;;;;14.83;53.40;101806.66;5035574;28;20044;-70
2021/08/29 06:18:51;;;;;;;1.98;0.73;;;;;;;14.89;53.46;101806.41;5052881;28;20061;-70
2021/08/29 06:21:18;;;;;;;1.50;0.50;;;;;;;14.81;53.75;101803.25;5038470;28;20029;-69
2021/08/29 06:23:44;;;;;;;3.33;0.30;;;;;;;14.38;54.26;101799.78;5033239;28;20033;-69
2021/08/29 06:26:28;;;;;;;4.80;0.47;;;;;;;14.44;54.14;101799.56;5038523;28;20059;-69
2021/08/29 06:29:12;;;;;;;3.47;0.70;;;;;;;14.52;54.22;101797.44;5037450;28;20055;-70
2021/08/29 06:32:00;;;;;;;1.75;0.50;;;;;;;14.56;54.12;101793.78;5012651;28;20251;-69
2021/08/29 06:34:44;;;;;;;5.60;0.88;;;;;;;15.02;52.90;101786.53;5023999;28;20044;-70
2021/08/29 06:37:20;;;;;;;1.70;0.32;;;;;;;15.03;52.99;101792.63;5018405;28;20045;-70
2021/08/29 06:39:45;;;;;;;3.38;0.70;;;;;;;14.89;53.42;101790.63;5035577;28;20036;-70
2021/08/29 06:42:11;;;;;;;4.70;0.65;;;;;;;14.93;53.43;101787.78;5020193;28;20029;-70
2021/08/29 06:44:37;;;;;;;1.42;0.60;;;;;;;14.83;53.48;101785.63;5051906;28;20033;-70
2021/08/29 06:47:21;;;;;;;2.10;0.85;;;;;;;14.74;53.73;101787.72;5039702;28;20532;-70
2021/08/29 06:50:24;;;;;;;3.42;0.70;;;;;;;14.96;52.98;101782.38;5016186;28;20046;-70
2021/08/29 06:53:09;;;;;;;4.90;0.40;;;;;;;14.76;53.50;101783.25;5010902;28;20149;-69
2021/08/29 06:56:12;;;;;;;2.05;0.82;;;;;;;14.81;53.36;101787.47;5029916;28;20033;-70
2021/08/29 06:59:04;;;;;;;4.80;0.80;;;;;;;14.92;53.03;101790.47;5030544;28;20252;-70
2021/08/29 07:01:29;;;;;;;2.40;0.80;;;;;;;14.85;53.32;101789.88;5035415;28;20071;-69
2021/08/29 07:03:55;;;;;;;2.35;0.70;;;;;;;14.97;53.49;101789.38;5033150;28;20056;-70
2021/08/29 07:06:21;;;;;;;2.80;0.70;;;;;;;15.04;53.04;101784.69;5033331;28;20063;-69
2021/08/29 07:09:04;;;;;;;2.20;0.60;;;;;;;14.97;53.45;101788.50;5036180;28;20072;-70
2021/08/29 07:11:30;;;;;;;4.00;0.52;;;;;;;14.72;54.13;101789.59;5022691;28;20051;-70
2021/08/29 07:14:19;;;;;;;2.95;0.80;;;;;;;14.95;53.72;101788.56;5011984;28;20096;-71
2021/08/29 07:16:44;;;;;;;7.60;0.90;;;;;;;15.17;52.94;101785.00;5033012;28;20453;-70
2021/08/29 07:19:10;;;;;;;3.47;0.82;;;;;;;15.32;52.76;101788.72;5032431;28;20049;-70
2021/08/29 07:21:54;;;;;;;3.15;1.08;;;;;;;15.21;53.33;101790.97;5034332;28;20382;-71
2021/08/29 07:24:38;;;;;;;2.95;1.30;;;;;;;14.80;54.60;101786.59;5035793;28;20056;-71
2021/08/29 07:27:22;;;;;;;2.60;0.68;;;;;;;14.51;55.16;101788.72;5035484;28;20129;-70
2021/08/29 07:30:07;;;;;;;2.30;1.05;;;;;;;15.25;53.57;101787.31;5037404;28;20056;-71
2021/08/29 07:32:46;;;;;;;4.38;0.90;;;;;;;14.81;54.69;101790.09;5042002;28;20091;-71
2021/08/29 07:35:12;;;;;;;3.80;0.70;;;;;;;15.01;54.41;101791.84;5033624;28;20288;-70
2021/08/29 07:37:57;;;;;;;1.67;0.50;;;;;;;15.05;54.07;101786.38;5036943;28;20521;-70
2021/08/29 07:40:23;;;;;;;1.70;0.52;;;;;;;14.83;55.15;101783.84;5044047;28;20032;-70
2021/08/29 07:42:49;;;;;;;4.03;1.33;;;;;;;14.90;54.97;101793.19;5025118;28;20483;-70
2021/08/29 07:45:15;;;;;;;2.17;0.68;;;;;;;15.23;53.94;101789.16;5024338;28;20083;-70
2021/08/29 07:47:41;;;;;;;5.75;1.27;;;;;;;15.22;54.02;101783.03;5034423;28;20035;-71
2021/08/29 07:50:07;;;;;;;2.60;0.50;;;;;;;15.48;52.88;101781.84;5033564;28;20038;-70
2021/08/29 07:52:34;;;;;;;3.92;0.70;;;;;;;15.34;53.80;101787.72;5017711;28;20128;-72
2021/08/29 07:55:19;;;;;;;1.70;0.65;;;;;;;15.25;53.80;101784.66;5033662;28;20098;-71
2021/08/29 07:57:47;;;;;;;3.17;1.45;;;;;;;15.54;53.27;101784.16;5035839;28;20060;-70
2021/08/29 08:00:17;;;;;;;5.90;2.30;;;;;;;15.35;53.57;101788.59;5037767;28;20056;-71
2021/08/29 08:02:53;;;;;;;1.83;0.68;;;;;;;15.38;53.68;101785.81;5035015;28;21684;-71
2021/08/29 08:05:42;;;;;;;4.28;0.98;;;;;;;15.36;53.84;101775.34;5014473;28;20050;-70
2021/08/29 08:08:26;;;;;;;3.50;0.70;;;;;;;15.50;53.55;101777.34;5033884;28;20075;-71
2021/08/29 08:11:10;;;;;;;3.80;0.73;;;;;;;15.95;52.35;101781.38;5036872;28;20580;-70
2021/08/29 08:13:35;;;;;;;2.60;0.70;;;;;;;16.06;52.49;101782.66;5022567;28;20040;-70
2021/08/29 08:16:01;;;;;;;5.85;0.50;;;;;;;15.35;53.80;101788.59;5049296;28;20029;-72
2021/08/29 08:18:28;;;;;;;7.45;1.05;;;;;;;15.42;53.55;101799.72;5020853;28;20631;-70
2021/08/29 08:20:54;;;;;;;4.78;1.02;;;;;;;15.95;52.39;101797.19;5032720;28;20487;-71
2021/08/29 08:23:39;;;;;;;3.55;1.27;;;;;;;15.29;54.23;101802.91;5032387;28;20146;-71
2021/08/29 08:26:30;;;;;;;7.25;1.50;;;;;;;15.49;53.21;101803.78;5017875;28;20414;-70
2021/08/29 08:29:14;;;;;;;5.68;0.77;;;;;;;15.43;53.97;101799.63;5037731;28;20068;-71
2021/08/29 08:31:59;;;;;;;4.43;0.73;;;;;;;15.53;53.60;101800.06;5035766;28;20051;-70
2021/08/29 08:34:33;;;;;;;3.90;1.50;;;;;;;15.37;53.92;101792.88;5034526;28;20045;-70
2021/08/29 08:37:03;;;;;;;2.92;0.68;;;;;;;15.35;54.32;101802.63;5037451;28;20025;-70
2021/08/29 08:39:49;;;;;;;4.78;0.98;;;;;;;15.45;53.61;101805.69;5019752;28;20040;-69
2021/08/29 08:42:39;;;;;;;2.67;0.82;;;;;;;15.23;54.42;101802.31;5032330;28;20030;-70
2021/08/29 08:45:22;;;;;;;3.08;0.40;;;;;;;15.18;54.76;101807.75;5033843;28;20067;-69
2021/08/29 08:48:26;;;;;;;2.63;0.50;;;;;;;15.24;54.41;101806.63;5033933;28;20045;-70
2021/08/29 08:51:16;;;;;;;0.82;0.63;;;;;;;;;;5031544;28;20037;-70
2021/08/29 08:54:02;;;;;;;5.05;1.38;;;;;;;15.25;54.72;101808.38;5033964;28;20127;-70
2021/08/29 08:56:47;;;;;;;5.32;0.55;;;;;;;15.64;53.81;101805.69;5032540;28;20048;-70
2021/08/29 08:59:33;;;;;;;4.93;0.57;;;;;;;15.60;54.29;101809.41;5033780;28;20047;-70
2021/08/29 09:02:21;;;;;;;4.30;0.85;;;;;;;15.56;54.10;101813.09;5032796;28;20063;-70
2021/08/29 09:05:10;;;;;;;1.63;0.63;;;;;;;15.55;53.63;101806.97;5018980;28;20044;-71
2021/08/29 09:07:37;;;;;;;3.95;1.05;;;;;;;15.49;54.03;101812.53;5037807;28;20037;-71
2021/08/29 09:10:05;;;;;;;5.32;0.73;;;;;;;15.18;54.68;101823.56;5021886;28;20040;-71
2021/08/29 09:12:31;;;;;;;2.53;0.45;;;;;;;15.20;54.61;101815.59;5037778;28;20020;-69
2021/08/29 09:14:57;;;;;;;4.13;0.75;;;;;;;15.20;54.76;101820.88;5052808;28;20557;-70
2021/08/29 09:17:29;;;;;;;5.00;1.08;;;;;;;15.62;53.87;101809.31;5040304;28;20120;-70
2021/08/29 09:20:24;;;;;;;3.42;0.40;;;;;;;15.40;54.23;101822.63;5051130;28;20116;-70
2021/08/29 09:23:00;;;;;;;1.73;0.55;;;;;;;15.70;53.24;101809.81;5041525;28;20033;-70
2021/08/29 09:25:44;;;;;;;1.55;0.80;;;;;;;15.61;54.06;101811.09;5036135;28;20053;-71
2021/08/29 09:28:26;;;;;;;;;;;;;;;15.62;53.82;101812.81;5037165;28;20056;-71
2021/08/29 09:30:58;;;;;;;5.28;1.20;;;;;;;15.67;53.78;101810.81;5049403;28;19929;-70
2021/08/29 09:33:30;;;;;;;2.10;0.82;;;;;;;16.25;52.42;101817.75;5040092;28;20033;-72
2021/08/29 09:35:56;;;;;;;1.77;0.82;;;;;;;16.27;52.64;101813.25;5033351;28;20025;-71
2021/08/29 09:38:42;;;;;;;3.55;0.90;;;;;;;16.10;53.33;101819.34;5031927;28;20161;-71
2021/08/29 09:41:23;;;;;;;4.70;0.80;;;;;;;16.33;52.16;101814.72;5041199;28;20079;-70
2021/08/29 09:44:18;;;;;;;2.63;0.60;;;;;;;16.20;52.23;101814.50;5037704;28;20044;-70
2021/08/29 09:46:49;;;;;;;;;;;;;;;16.34;52.16;101821.72;5043006;28;20058;-70
2021/08/29 09:49:35;;;;;;;3.13;0.73;;;;;;;16.19;52.53;101825.94;5036403;28;20285;-70
2021/08/29 09:52:26;;;;;;;6.45;1.20;;;;;;;16.38;51.93;101826.75;5036595;28;20040;-69
2021/08/29 09:55:05;;;;;;;5.72;1.00;;;;;;;16.48;51.31;101828.94;5039176;28;20038;-70
2021/08/29 09:57:51;;;;;;;5.95;1.77;;;;;;;16.40;51.78;101827.53;5036229;28;20042;-69
2021/08/29 10:00:22;;;;;;;4.72;1.60;;;;;;;16.33;52.25;101826.16;5036667;28;20120;-70
2021/08/29 10:03:05;;;;;;;2.05;0.93;;;;;;;16.07;52.58;101827.41;5022721;28;20375;-70
2021/08/29 10:05:44;;;;;;;1.97;0.50;;;;;;;16.00;52.98;101834.75;5039493;28;20724;-70
2021/08/29 10:08:10;;;;;;;4.82;1.20;;;;;;;16.07;52.66;101839.75;5036942;28;20128;-70
2021/08/29 10:10:45;;;;;;;4.03;1.30;;;;;;;15.97;53.08;101834.88;5027526;28;20053;-70
2021/08/29 10:13:15;;;;;;;2.35;0.85;;;;;;;16.25;52.09;101844.13;5045016;28;20072;-71
2021/08/29 10:15:50;;;;;;;6.20;1.63;;;;;;;16.72;51.75;101838.25;5052698;28;20099;-71
2021/08/29 10:18:37;;;;;;;3.30;1.13;;;;;;;16.71;51.58;101835.69;5048754;28;20097;-73
2021/08/29 10:21:24;;;;;;;4.97;0.95;;;;;;;16.40;51.90;101835.47;5054976;28;20047;-70
2021/08/29 10:23:57;;;;;;;1.83;0.90;;;;;;;16.89;50.98;101836.56;5045567;28;20029;-70
2021/08/29 10:26:24;;;;;;;4.18;0.95;;;;;;;16.39;51.92;101836.38;5051989;28;20124;-69
2021/08/29 10:29:07;;;;;;;2.53;0.85;;;;;;;16.97;50.78;101834.38;5037652;28;20116;-70
2021/08/29 10:32:21;;;;;;;1.88;1.08;;;;;;;16.62;51.72;101852.84;5028131;28;20037;-70
2021/08/29 10:35:08;;;;;;;;;;;;;;;16.83;51.24;101841.22;5039165;28;20129;-70
2021/08/29 10:37:38;;;;;;;5.63;1.02;;;;;;;15.97;53.37;101841.91;5038541;28;20284;-70
2021/08/29 10:40:23;;;;;;;1.70;0.90;;;;;;;16.53;51.83;101843.63;5042951;28;20176;-71
2021/08/29 10:42:58;;;;;;;3.25;0.75;;;;;;;16.76;51.22;101837.22;5037841;28;20033;-70
2021/08/29 10:45:25;;;;;;;4.07;0.88;;;;;;;16.95;50.76;101834.47;5040273;28;20112;-70
2021/08/29 10:48:11;;;;;;;2.38;1.17;;;;;;;16.60;51.99;101846.81;5039122;28;20128;-71
2021/08/29 10:50:57;;;;;;;1.45;0.68;;;;;;;16.04;52.85;101845.16;5037124;28;20088;-70
2021/08/29 10:53:26;;;;;;;5.10;1.77;;;;;;;16.74;51.28;101835.53;5040055;28;20067;-70
2021/08/29 10:56:13;;;;;;;3.00;1.35;;;;;;;16.45;52.20;101844.94;5054773;28;20099;-70
2021/08/29 10:58:38;;;;;;;5.07;1.75;;;;;;;16.32;52.80;101834.97;5037279;28;20478;-71
2021/08/29 11:01:04;;;;;;;4.10;1.15;;;;;;;16.82;51.47;101842.19;5025840;28;20037;-70
2021/08/29 11:03:50;;;;;;;4.70;0.90;;;;;;;16.48;52.09;101844.78;5040811;28;20101;-70
2021/08/29 11:06:58;;;;;;;5.18;1.33;;;;;;;16.83;51.08;101857.06;5020620;28;20101;-71
2021/08/29 11:09:37;;;;;;;5.15;1.40;;;;;;;17.02;50.70;101856.13;5037936;28;20398;-70
2021/08/29 11:12:13;;;;;;;3.13;1.05;;;;;;;16.92;51.11;101854.91;5044332;28;20045;-70
2021/08/29 11:14:47;;;;;;;4.65;1.77;;;;;;;16.66;52.02;101849.13;5052713;28;20043;-72
2021/08/29 11:17:15;;;;;;;3.40;1.50;;;;;;;16.88;51.22;101854.19;5056148;28;20040;-70
2021/08/29 11:20:06;;;;;;;2.92;1.20;;;;;;;16.52;52.12;101857.72;5041838;28;20049;-70
2021/08/29 11:22:51;;;;;;;3.88;1.30;;;;;;;16.78;51.57;101851.19;5044324;28;20092;-70
2021/08/29 11:25:36;;;;;;;4.30;1.95;;;;;;;16.49;52.13;101849.09;4999218;28;20056;-70
2021/08/29 11:28:31;;;;;;;5.75;1.38;;;;;;;16.50;52.31;101858.75;4986631;28;20035;-70
2021/08/29 11:31:52;;;;;;;5.57;1.00;;;;;;;16.81;51.19;101851.00;5028723;28;20036;-70
2021/08/29 11:34:22;;;;;;;7.30;1.70;;;;;;;17.18;50.62;101857.03;5038732;28;20028;-71
2021/08/29 11:36:47;;;;;;;3.47;1.77;;;;;;;17.19;50.36;101861.38;5017999;28;20186;-72
2021/08/29 11:39:42;;;;;;;2.55;1.08;;;;;;;17.11;50.66;101860.91;5035291;28;20700;-71
2021/08/29 11:42:19;;;;;;;5.32;1.65;;;;;;;16.70;51.76;101855.97;5053579;28;20033;-69
2021/08/29 11:44:50;;;;;;;3.30;1.58;;;;;;;17.16;50.74;101861.56;5029929;28;20032;-71
2021/08/29 11:47:16;;;;;;;3.58;1.23;;;;;;;16.69;51.57;101854.25;5053267;28;20072;-70
2021/08/29 11:49:56;;;;;;;3.08;1.20;;;;;;;16.45;52.45;101866.88;5024608;28;20091;-70
2021/08/29 11:52:27;;;;;;;2.97;1.45;;;;;;;16.62;51.94;101858.13;5035829;28;20037;-72
2021/08/29 11:55:11;;;;;;;6.32;0.98;;;;;;;16.78;51.90;101871.47;5025421;28;20116;-70